sensor_id;sensor_type;location;lat;lon;timestamp;P1;durP1;ratioP1;P2;durP2;ratioP2
51995;SDS011;38010;53.264;6.592;2022-08-23T00:01:53;0.35;;;0.35;;
51995;SDS011;38010;53.264;6.592;2022-08-23T00:04:22;0.45;;;0.40;;
51995;SDS011;38010;53.264;6.592;2022-08-23T00:06:51;0.40;;;0.40;;
51995;SDS011;38010;53.264;6.592;2022-08-23T00:09:19;0.55;;;0.50;;
51995;SDS011;38010;53.264;6.592;2022-08-23T00:11:51;0.40;;;0.40;;
51995;SDS011;38010;53.264;6.592;2022-08-23T00:16:46;0.40;;;0.40;;
51995;SDS011;38010;53.264;6.592;2022-08-23T00:19:13;0.47;;;0.38;;
51995;SDS011;38010;53.264;6.592;2022-08-23T00:21:41;0.55;;;0.40;;
51995;SDS011;38010;53.264;6.592;2022-08-23T00:24:08;0.52;;;0.40;;
51995;SDS011;38010;53.264;6.592;2022-08-23T00:26:49;0.65;;;0.30;;
51995;SDS011;38010;53.264;6.592;2022-08-23T00:29:22;0.40;;;0.40;;
51995;SDS011;38010;53.264;6.592;2022-08-23T00:31:50;0.38;;;0.38;;
51995;SDS011;38010;53.264;6.592;2022-08-23T00:34:15;0.60;;;0.40;;
51995;SDS011;38010;53.264;6.592;2022-08-23T00:36:41;0.40;;;0.40;;
51995;SDS011;38010;53.264;6.592;2022-08-23T00:39:09;0.63;;;0.40;;
51995;SDS011;38010;53.264;6.592;2022-08-23T00:41:35;0.30;;;0.30;;
51995;SDS011;38010;53.264;6.592;2022-08-23T00:44:02;0.43;;;0.40;;
51995;SDS011;38010;53.264;6.592;2022-08-23T00:46:51;0.40;;;0.40;;
51995;SDS011;38010;53.264;6.592;2022-08-23T00:49:50;0.43;;;0.40;;
51995;SDS011;38010;53.264;6.592;2022-08-23T00:52:36;0.50;;;0.40;;
51995;SDS011;38010;53.264;6.592;2022-08-23T00:55:06;0.88;;;0.40;;
51995;SDS011;38010;53.264;6.592;2022-08-23T00:57:32;0.30;;;0.30;;
51995;SDS011;38010;53.264;6.592;2022-08-23T00:59:58;0.30;;;0.30;;
51995;SDS011;38010;53.264;6.592;2022-08-23T01:02:24;0.40;;;0.40;;
51995;SDS011;38010;53.264;6.592;2022-08-23T01:04:53;0.40;;;0.40;;
51995;SDS011;38010;53.264;6.592;2022-08-23T01:07:35;0.55;;;0.40;;
51995;SDS011;38010;53.264;6.592;2022-08-23T01:10:06;0.30;;;0.30;;
51995;SDS011;38010;53.264;6.592;2022-08-23T01:12:41;0.50;;;0.50;;
51995;SDS011;38010;53.264;6.592;2022-08-23T01:18:14;0.57;;;0.40;;
51995;SDS011;38010;53.264;6.592;2022-08-23T01:23:28;0.50;;;0.40;;
51995;SDS011;38010;53.264;6.592;2022-08-23T01:26:03;0.30;;;0.30;;
51995;SDS011;38010;53.264;6.592;2022-08-23T01:28:30;0.40;;;0.40;;
51995;SDS011;38010;53.264;6.592;2022-08-23T01:30:57;0.50;;;0.50;;
51995;SDS011;38010;53.264;6.592;2022-08-23T01:33:23;0.32;;;0.32;;
51995;SDS011;38010;53.264;6.592;2022-08-23T01:35:54;0.40;;;0.40;;
51995;SDS011;38010;53.264;6.592;2022-08-23T01:38:21;0.30;;;0.30;;
51995;SDS011;38010;53.264;6.592;2022-08-23T01:40:48;0.40;;;0.40;;
51995;SDS011;38010;53.264;6.592;2022-08-23T01:43:15;0.30;;;0.30;;
51995;SDS011;38010;53.264;6.592;2022-08-23T01:45:43;0.40;;;0.30;;
51995;SDS011;38010;53.264;6.592;2022-08-23T01:48:10;0.20;;;0.20;;
51995;SDS011;38010;53.264;6.592;2022-08-23T01:50:36;0.38;;;0.30;;
51995;SDS011;38010;53.264;6.592;2022-08-23T01:53:04;0.30;;;0.30;;
51995;SDS011;38010;53.264;6.592;2022-08-23T01:55:30;0.30;;;0.30;;
51995;SDS011;38010;53.264;6.592;2022-08-23T01:57:57;0.30;;;0.30;;
51995;SDS011;38010;53.264;6.592;2022-08-23T02:00:26;0.40;;;0.40;;
51995;SDS011;38010;53.264;6.592;2022-08-23T02:05:23;0.20;;;0.20;;
51995;SDS011;38010;53.264;6.592;2022-08-23T02:07:49;0.47;;;0.40;;
51995;SDS011;38010;53.264;6.592;2022-08-23T02:10:15;0.40;;;0.40;;
51995;SDS011;38010;53.264;6.592;2022-08-23T02:12:42;1.02;;;0.40;;
51995;SDS011;38010;53.264;6.592;2022-08-23T02:15:08;0.30;;;0.30;;
51995;SDS011;38010;53.264;6.592;2022-08-23T02:17:34;0.32;;;0.30;;
51995;SDS011;38010;53.264;6.592;2022-08-23T02:20:00;0.47;;;0.38;;
51995;SDS011;38010;53.264;6.592;2022-08-23T02:22:28;0.30;;;0.30;;
51995;SDS011;38010;53.264;6.592;2022-08-23T02:24:54;0.43;;;0.40;;
51995;SDS011;38010;53.264;6.592;2022-08-23T02:27:19;0.40;;;0.30;;
51995;SDS011;38010;53.264;6.592;2022-08-23T02:29:45;0.40;;;0.40;;
51995;SDS011;38010;53.264;6.592;2022-08-23T02:32:12;0.32;;;0.32;;
51995;SDS011;38010;53.264;6.592;2022-08-23T02:34:40;0.30;;;0.30;;
51995;SDS011;38010;53.264;6.592;2022-08-23T02:37:07;0.30;;;0.30;;
51995;SDS011;38010;53.264;6.592;2022-08-23T02:39:35;0.30;;;0.30;;
51995;SDS011;38010;53.264;6.592;2022-08-23T02:42:01;0.30;;;0.30;;
51995;SDS011;38010;53.264;6.592;2022-08-23T02:44:27;0.30;;;0.30;;
51995;SDS011;38010;53.264;6.592;2022-08-23T02:46:53;0.60;;;0.40;;
51995;SDS011;38010;53.264;6.592;2022-08-23T02:49:18;0.40;;;0.40;;
51995;SDS011;38010;53.264;6.592;2022-08-23T02:51:45;0.30;;;0.30;;
51995;SDS011;38010;53.264;6.592;2022-08-23T02:54:11;0.45;;;0.40;;
51995;SDS011;38010;53.264;6.592;2022-08-23T02:56:37;0.32;;;0.32;;
51995;SDS011;38010;53.264;6.592;2022-08-23T02:59:04;0.40;;;0.38;;
51995;SDS011;38010;53.264;6.592;2022-08-23T03:01:32;0.38;;;0.30;;
51995;SDS011;38010;53.264;6.592;2022-08-23T03:04:00;0.30;;;0.30;;
51995;SDS011;38010;53.264;6.592;2022-08-23T03:06:26;0.50;;;0.35;;
51995;SDS011;38010;53.264;6.592;2022-08-23T03:08:53;0.35;;;0.30;;
51995;SDS011;38010;53.264;6.592;2022-08-23T03:11:20;0.40;;;0.40;;
51995;SDS011;38010;53.264;6.592;2022-08-23T03:13:47;0.38;;;0.30;;
51995;SDS011;38010;53.264;6.592;2022-08-23T03:16:15;0.40;;;0.40;;
51995;SDS011;38010;53.264;6.592;2022-08-23T03:18:41;0.43;;;0.40;;
51995;SDS011;38010;53.264;6.592;2022-08-23T03:21:07;0.30;;;0.30;;
51995;SDS011;38010;53.264;6.592;2022-08-23T03:23:34;0.30;;;0.30;;
51995;SDS011;38010;53.264;6.592;2022-08-23T03:26:01;0.40;;;0.40;;
51995;SDS011;38010;53.264;6.592;2022-08-23T03:28:28;0.30;;;0.30;;
51995;SDS011;38010;53.264;6.592;2022-08-23T03:30:54;0.52;;;0.30;;
51995;SDS011;38010;53.264;6.592;2022-08-23T03:33:21;0.40;;;0.40;;
51995;SDS011;38010;53.264;6.592;2022-08-23T03:35:47;0.30;;;0.30;;
51995;SDS011;38010;53.264;6.592;2022-08-23T03:38:14;0.22;;;0.22;;
51995;SDS011;38010;53.264;6.592;2022-08-23T03:40:41;0.30;;;0.30;;
51995;SDS011;38010;53.264;6.592;2022-08-23T03:43:08;0.22;;;0.22;;
51995;SDS011;38010;53.264;6.592;2022-08-23T03:45:34;0.30;;;0.30;;
51995;SDS011;38010;53.264;6.592;2022-08-23T03:47:59;0.30;;;0.30;;
51995;SDS011;38010;53.264;6.592;2022-08-23T03:50:26;0.20;;;0.20;;
51995;SDS011;38010;53.264;6.592;2022-08-23T03:52:52;0.50;;;0.30;;
51995;SDS011;38010;53.264;6.592;2022-08-23T03:55:18;0.30;;;0.30;;
51995;SDS011;38010;53.264;6.592;2022-08-23T03:57:44;0.30;;;0.30;;
51995;SDS011;38010;53.264;6.592;2022-08-23T04:00:10;0.38;;;0.30;;
51995;SDS011;38010;53.264;6.592;2022-08-23T04:02:38;0.30;;;0.30;;
51995;SDS011;38010;53.264;6.592;2022-08-23T04:05:04;0.20;;;0.20;;
51995;SDS011;38010;53.264;6.592;2022-08-23T04:07:32;0.30;;;0.30;;
51995;SDS011;38010;53.264;6.592;2022-08-23T04:09:59;0.20;;;0.20;;
51995;SDS011;38010;53.264;6.592;2022-08-23T04:12:25;0.20;;;0.20;;
51995;SDS011;38010;53.264;6.592;2022-08-23T04:14:51;0.35;;;0.35;;
51995;SDS011;38010;53.264;6.592;2022-08-23T04:17:17;0.20;;;0.20;;
51995;SDS011;38010;53.264;6.592;2022-08-23T04:19:44;0.30;;;0.30;;
51995;SDS011;38010;53.264;6.592;2022-08-23T04:22:13;0.35;;;0.30;;
51995;SDS011;38010;53.264;6.592;2022-08-23T04:24:40;0.22;;;0.22;;
51995;SDS011;38010;53.264;6.592;2022-08-23T04:27:07;0.30;;;0.30;;
51995;SDS011;38010;53.264;6.592;2022-08-23T04:29:33;0.30;;;0.30;;
51995;SDS011;38010;53.264;6.592;2022-08-23T04:31:59;0.30;;;0.30;;
51995;SDS011;38010;53.264;6.592;2022-08-23T04:34:26;0.32;;;0.32;;
51995;SDS011;38010;53.264;6.592;2022-08-23T04:36:52;0.20;;;0.20;;
51995;SDS011;38010;53.264;6.592;2022-08-23T04:39:18;0.30;;;0.30;;
51995;SDS011;38010;53.264;6.592;2022-08-23T04:41:43;0.25;;;0.25;;
51995;SDS011;38010;53.264;6.592;2022-08-23T04:44:27;0.30;;;0.30;;
51995;SDS011;38010;53.264;6.592;2022-08-23T04:46:53;0.30;;;0.30;;
51995;SDS011;38010;53.264;6.592;2022-08-23T04:49:18;0.30;;;0.30;;
51995;SDS011;38010;53.264;6.592;2022-08-23T04:51:46;0.30;;;0.30;;
51995;SDS011;38010;53.264;6.592;2022-08-23T04:54:12;0.35;;;0.35;;
51995;SDS011;38010;53.264;6.592;2022-08-23T04:56:38;0.20;;;0.20;;
51995;SDS011;38010;53.264;6.592;2022-08-23T04:59:04;0.63;;;0.32;;
51995;SDS011;38010;53.264;6.592;2022-08-23T05:01:30;0.20;;;0.20;;
51995;SDS011;38010;53.264;6.592;2022-08-23T05:03:57;0.20;;;0.20;;
51995;SDS011;38010;53.264;6.592;2022-08-23T05:06:24;0.20;;;0.20;;
51995;SDS011;38010;53.264;6.592;2022-08-23T05:08:49;0.20;;;0.20;;
51995;SDS011;38010;53.264;6.592;2022-08-23T05:11:15;0.20;;;0.20;;
51995;SDS011;38010;53.264;6.592;2022-08-23T05:13:42;0.20;;;0.20;;
51995;SDS011;38010;53.264;6.592;2022-08-23T05:16:08;0.40;;;0.40;;
51995;SDS011;38010;53.264;6.592;2022-08-23T05:18:35;0.20;;;0.20;;
51995;SDS011;38010;53.264;6.592;2022-08-23T05:21:00;0.30;;;0.30;;
51995;SDS011;38010;53.264;6.592;2022-08-23T05:23:26;0.30;;;0.30;;
51995;SDS011;38010;53.264;6.592;2022-08-23T05:25:53;0.30;;;0.30;;
51995;SDS011;38010;53.264;6.592;2022-08-23T05:28:19;1.38;;;0.57;;
51995;SDS011;38010;53.264;6.592;2022-08-23T05:30:53;0.20;;;0.20;;
51995;SDS011;38010;53.264;6.592;2022-08-23T05:33:24;0.20;;;0.20;;
51995;SDS011;38010;53.264;6.592;2022-08-23T05:35:50;0.20;;;0.20;;
51995;SDS011;38010;53.264;6.592;2022-08-23T05:38:17;0.35;;;0.32;;
51995;SDS011;38010;53.264;6.592;2022-08-23T05:40:42;0.20;;;0.20;;
51995;SDS011;38010;53.264;6.592;2022-08-23T05:43:08;0.30;;;0.30;;
51995;SDS011;38010;53.264;6.592;2022-08-23T05:45:34;0.30;;;0.30;;
51995;SDS011;38010;53.264;6.592;2022-08-23T05:48:00;0.28;;;0.20;;
51995;SDS011;38010;53.264;6.592;2022-08-23T05:50:26;0.40;;;0.40;;
51995;SDS011;38010;53.264;6.592;2022-08-23T05:52:52;0.63;;;0.30;;
51995;SDS011;38010;53.264;6.592;2022-08-23T05:55:17;0.30;;;0.30;;
51995;SDS011;38010;53.264;6.592;2022-08-23T05:57:43;0.30;;;0.30;;
51995;SDS011;38010;53.264;6.592;2022-08-23T06:00:09;0.28;;;0.28;;
51995;SDS011;38010;53.264;6.592;2022-08-23T06:02:38;0.20;;;0.20;;
51995;SDS011;38010;53.264;6.592;2022-08-23T06:05:04;0.30;;;0.30;;
51995;SDS011;38010;53.264;6.592;2022-08-23T06:07:29;0.38;;;0.30;;
51995;SDS011;38010;53.264;6.592;2022-08-23T06:09:58;0.20;;;0.20;;
51995;SDS011;38010;53.264;6.592;2022-08-23T06:12:23;0.30;;;0.30;;
51995;SDS011;38010;53.264;6.592;2022-08-23T06:14:49;0.30;;;0.30;;
51995;SDS011;38010;53.264;6.592;2022-08-23T06:17:15;0.20;;;0.20;;
51995;SDS011;38010;53.264;6.592;2022-08-23T06:19:41;0.80;;;0.30;;
51995;SDS011;38010;53.264;6.592;2022-08-23T06:22:06;0.30;;;0.30;;
51995;SDS011;38010;53.264;6.592;2022-08-23T06:24:32;0.25;;;0.25;;
51995;SDS011;38010;53.264;6.592;2022-08-23T06:26:58;0.20;;;0.20;;
51995;SDS011;38010;53.264;6.592;2022-08-23T06:29:23;0.35;;;0.35;;
51995;SDS011;38010;53.264;6.592;2022-08-23T06:31:50;0.20;;;0.20;;
51995;SDS011;38010;53.264;6.592;2022-08-23T06:36:49;0.20;;;0.20;;
51995;SDS011;38010;53.264;6.592;2022-08-23T06:39:20;0.30;;;0.30;;
51995;SDS011;38010;53.264;6.592;2022-08-23T06:41:48;0.30;;;0.30;;
51995;SDS011;38010;53.264;6.592;2022-08-23T06:44:16;0.73;;;0.30;;
51995;SDS011;38010;53.264;6.592;2022-08-23T06:46:42;0.30;;;0.30;;
51995;SDS011;38010;53.264;6.592;2022-08-23T06:49:09;0.30;;;0.30;;
51995;SDS011;38010;53.264;6.592;2022-08-23T06:51:39;0.20;;;0.20;;
51995;SDS011;38010;53.264;6.592;2022-08-23T06:54:08;0.25;;;0.20;;
51995;SDS011;38010;53.264;6.592;2022-08-23T06:56:36;0.30;;;0.30;;
51995;SDS011;38010;53.264;6.592;2022-08-23T06:59:04;0.30;;;0.30;;
51995;SDS011;38010;53.264;6.592;2022-08-23T07:04:03;0.20;;;0.20;;
51995;SDS011;38010;53.264;6.592;2022-08-23T07:06:30;0.20;;;0.20;;
51995;SDS011;38010;53.264;6.592;2022-08-23T07:08:56;0.22;;;0.22;;
51995;SDS011;38010;53.264;6.592;2022-08-23T07:11:26;0.35;;;0.35;;
51995;SDS011;38010;53.264;6.592;2022-08-23T07:13:55;0.30;;;0.30;;
51995;SDS011;38010;53.264;6.592;2022-08-23T07:16:23;0.30;;;0.30;;
51995;SDS011;38010;53.264;6.592;2022-08-23T07:18:49;0.20;;;0.20;;
51995;SDS011;38010;53.264;6.592;2022-08-23T07:21:17;0.30;;;0.30;;
51995;SDS011;38010;53.264;6.592;2022-08-23T07:23:44;0.30;;;0.30;;
51995;SDS011;38010;53.264;6.592;2022-08-23T07:26:10;0.20;;;0.20;;
51995;SDS011;38010;53.264;6.592;2022-08-23T07:28:38;0.30;;;0.30;;
51995;SDS011;38010;53.264;6.592;2022-08-23T07:33:37;0.20;;;0.20;;
51995;SDS011;38010;53.264;6.592;2022-08-23T07:36:05;0.35;;;0.30;;
51995;SDS011;38010;53.264;6.592;2022-08-23T07:38:31;0.20;;;0.20;;
51995;SDS011;38010;53.264;6.592;2022-08-23T07:40:59;0.47;;;0.30;;
51995;SDS011;38010;53.264;6.592;2022-08-23T07:43:25;0.20;;;0.20;;
51995;SDS011;38010;53.264;6.592;2022-08-23T07:45:51;0.30;;;0.30;;
51995;SDS011;38010;53.264;6.592;2022-08-23T07:48:16;0.30;;;0.30;;
51995;SDS011;38010;53.264;6.592;2022-08-23T07:50:49;0.30;;;0.30;;
51995;SDS011;38010;53.264;6.592;2022-08-23T07:53:18;0.25;;;0.25;;
51995;SDS011;38010;53.264;6.592;2022-08-23T07:55:44;0.30;;;0.30;;
51995;SDS011;38010;53.264;6.592;2022-08-23T07:58:10;0.38;;;0.38;;
51995;SDS011;38010;53.264;6.592;2022-08-23T08:00:35;0.30;;;0.30;;
51995;SDS011;38010;53.264;6.592;2022-08-23T08:03:01;0.30;;;0.30;;
51995;SDS011;38010;53.264;6.592;2022-08-23T08:05:27;0.43;;;0.43;;
51995;SDS011;38010;53.264;6.592;2022-08-23T08:07:55;0.38;;;0.38;;
51995;SDS011;38010;53.264;6.592;2022-08-23T08:10:20;0.30;;;0.30;;
51995;SDS011;38010;53.264;6.592;2022-08-23T08:12:46;0.30;;;0.30;;
51995;SDS011;38010;53.264;6.592;2022-08-23T08:15:12;0.30;;;0.30;;
51995;SDS011;38010;53.264;6.592;2022-08-23T08:17:37;0.30;;;0.30;;
51995;SDS011;38010;53.264;6.592;2022-08-23T08:20:03;0.30;;;0.30;;
51995;SDS011;38010;53.264;6.592;2022-08-23T08:22:29;0.22;;;0.22;;
51995;SDS011;38010;53.264;6.592;2022-08-23T08:24:55;0.30;;;0.30;;
51995;SDS011;38010;53.264;6.592;2022-08-23T08:27:21;0.68;;;0.32;;
51995;SDS011;38010;53.264;6.592;2022-08-23T08:29:47;0.30;;;0.30;;
51995;SDS011;38010;53.264;6.592;2022-08-23T08:32:13;0.30;;;0.30;;
51995;SDS011;38010;53.264;6.592;2022-08-23T08:34:38;0.30;;;0.30;;
51995;SDS011;38010;53.264;6.592;2022-08-23T08:37:05;0.22;;;0.22;;
51995;SDS011;38010;53.264;6.592;2022-08-23T08:39:31;0.30;;;0.30;;
51995;SDS011;38010;53.264;6.592;2022-08-23T08:44:50;0.30;;;0.30;;
51995;SDS011;38010;53.264;6.592;2022-08-23T08:47:26;0.50;;;0.38;;
51995;SDS011;38010;53.264;6.592;2022-08-23T08:50:14;0.20;;;0.20;;
51995;SDS011;38010;53.264;6.592;2022-08-23T08:52:53;0.45;;;0.30;;
51995;SDS011;38010;53.264;6.592;2022-08-23T08:55:31;0.30;;;0.30;;
51995;SDS011;38010;53.264;6.592;2022-08-23T08:58:05;0.40;;;0.40;;
51995;SDS011;38010;53.264;6.592;2022-08-23T09:00:32;0.20;;;0.20;;
51995;SDS011;38010;53.264;6.592;2022-08-23T09:03:03;0.30;;;0.30;;
51995;SDS011;38010;53.264;6.592;2022-08-23T09:05:36;0.30;;;0.30;;
51995;SDS011;38010;53.264;6.592;2022-08-23T09:10:57;0.40;;;0.40;;
51995;SDS011;38010;53.264;6.592;2022-08-23T09:13:50;0.30;;;0.30;;
51995;SDS011;38010;53.264;6.592;2022-08-23T09:16:38;0.40;;;0.40;;
51995;SDS011;38010;53.264;6.592;2022-08-23T09:19:08;0.45;;;0.45;;
51995;SDS011;38010;53.264;6.592;2022-08-23T09:22:08;0.30;;;0.30;;
51995;SDS011;38010;53.264;6.592;2022-08-23T09:24:31;0.68;;;0.32;;
51995;SDS011;38010;53.264;6.592;2022-08-23T09:26:57;0.30;;;0.30;;
51995;SDS011;38010;53.264;6.592;2022-08-23T09:29:28;0.30;;;0.30;;
51995;SDS011;38010;53.264;6.592;2022-08-23T09:32:03;0.20;;;0.20;;
51995;SDS011;38010;53.264;6.592;2022-08-23T09:43:05;0.30;;;0.30;;
51995;SDS011;38010;53.264;6.592;2022-08-23T09:45:52;0.40;;;0.40;;
51995;SDS011;38010;53.264;6.592;2022-08-23T09:51:11;0.30;;;0.30;;
51995;SDS011;38010;53.264;6.592;2022-08-23T09:53:51;0.30;;;0.30;;
51995;SDS011;38010;53.264;6.592;2022-08-23T09:56:39;0.32;;;0.32;;
51995;SDS011;38010;53.264;6.592;2022-08-23T09:59:18;0.38;;;0.38;;
51995;SDS011;38010;53.264;6.592;2022-08-23T10:01:56;0.35;;;0.35;;
51995;SDS011;38010;53.264;6.592;2022-08-23T10:04:26;0.45;;;0.30;;
51995;SDS011;38010;53.264;6.592;2022-08-23T10:09:52;0.30;;;0.30;;
51995;SDS011;38010;53.264;6.592;2022-08-23T10:12:18;0.30;;;0.30;;
51995;SDS011;38010;53.264;6.592;2022-08-23T10:14:44;0.38;;;0.38;;
51995;SDS011;38010;53.264;6.592;2022-08-23T10:17:26;0.40;;;0.40;;
51995;SDS011;38010;53.264;6.592;2022-08-23T10:22:50;0.90;;;0.40;;
51995;SDS011;38010;53.264;6.592;2022-08-23T10:39:29;0.30;;;0.30;;
51995;SDS011;38010;53.264;6.592;2022-08-23T10:41:58;0.25;;;0.25;;
51995;SDS011;38010;53.264;6.592;2022-08-23T10:50:03;0.30;;;0.30;;
51995;SDS011;38010;53.264;6.592;2022-08-23T10:52:36;0.30;;;0.30;;
51995;SDS011;38010;53.264;6.592;2022-08-23T10:55:08;0.40;;;0.40;;
51995;SDS011;38010;53.264;6.592;2022-08-23T10:57:48;0.30;;;0.30;;
51995;SDS011;38010;53.264;6.592;2022-08-23T11:00:19;0.35;;;0.35;;
51995;SDS011;38010;53.264;6.592;2022-08-23T11:02:52;0.40;;;0.40;;
51995;SDS011;38010;53.264;6.592;2022-08-23T11:05:40;0.30;;;0.30;;
51995;SDS011;38010;53.264;6.592;2022-08-23T11:08:08;0.43;;;0.30;;
51995;SDS011;38010;53.264;6.592;2022-08-23T11:20:55;0.40;;;0.40;;
51995;SDS011;38010;53.264;6.592;2022-08-23T11:23:34;0.40;;;0.40;;
51995;SDS011;38010;53.264;6.592;2022-08-23T11:26:04;0.30;;;0.30;;
51995;SDS011;38010;53.264;6.592;2022-08-23T11:28:42;0.43;;;0.40;;
51995;SDS011;38010;53.264;6.592;2022-08-23T11:31:25;0.45;;;0.45;;
51995;SDS011;38010;53.264;6.592;2022-08-23T11:34:00;0.80;;;0.40;;
51995;SDS011;38010;53.264;6.592;2022-08-23T11:36:31;0.40;;;0.40;;
51995;SDS011;38010;53.264;6.592;2022-08-23T11:38:59;0.30;;;0.30;;
51995;SDS011;38010;53.264;6.592;2022-08-23T11:41:29;0.30;;;0.30;;
51995;SDS011;38010;53.264;6.592;2022-08-23T11:46:32;0.38;;;0.35;;
51995;SDS011;38010;53.264;6.592;2022-08-23T11:54:42;0.40;;;0.38;;
51995;SDS011;38010;53.264;6.592;2022-08-23T12:00:28;0.40;;;0.40;;
51995;SDS011;38010;53.264;6.592;2022-08-23T12:08:32;0.30;;;0.30;;
51995;SDS011;38010;53.264;6.592;2022-08-23T12:11:20;0.30;;;0.30;;
51995;SDS011;38010;53.264;6.592;2022-08-23T12:16:26;0.38;;;0.38;;
51995;SDS011;38010;53.264;6.592;2022-08-23T12:18:56;0.30;;;0.30;;
51995;SDS011;38010;53.264;6.592;2022-08-23T12:21:47;0.30;;;0.30;;
51995;SDS011;38010;53.264;6.592;2022-08-23T12:29:56;0.30;;;0.30;;
51995;SDS011;38010;53.264;6.592;2022-08-23T12:40:36;0.55;;;0.40;;
51995;SDS011;38010;53.264;6.592;2022-08-23T12:43:05;0.35;;;0.35;;
51995;SDS011;38010;53.264;6.592;2022-08-23T12:45:39;0.30;;;0.30;;
51995;SDS011;38010;53.264;6.592;2022-08-23T12:48:08;0.30;;;0.30;;
51995;SDS011;38010;53.264;6.592;2022-08-23T12:50:37;0.30;;;0.30;;
51995;SDS011;38010;53.264;6.592;2022-08-23T12:53:11;0.38;;;0.38;;
51995;SDS011;38010;53.264;6.592;2022-08-23T12:55:42;0.30;;;0.30;;
51995;SDS011;38010;53.264;6.592;2022-08-23T12:58:11;0.30;;;0.30;;
51995;SDS011;38010;53.264;6.592;2022-08-23T13:00:52;0.30;;;0.30;;
51995;SDS011;38010;53.264;6.592;2022-08-23T13:03:21;0.32;;;0.32;;
51995;SDS011;38010;53.264;6.592;2022-08-23T13:06:10;0.38;;;0.38;;
51995;SDS011;38010;53.264;6.592;2022-08-23T13:08:40;0.30;;;0.30;;
51995;SDS011;38010;53.264;6.592;2022-08-23T13:11:10;0.40;;;0.40;;
51995;SDS011;38010;53.264;6.592;2022-08-23T13:13:38;0.40;;;0.40;;
51995;SDS011;38010;53.264;6.592;2022-08-23T13:21:41;0.30;;;0.30;;
51995;SDS011;38010;53.264;6.592;2022-08-23T13:27:11;0.40;;;0.40;;
51995;SDS011;38010;53.264;6.592;2022-08-23T13:40:44;0.40;;;0.40;;
51995;SDS011;38010;53.264;6.592;2022-08-23T13:43:19;0.40;;;0.40;;
51995;SDS011;38010;53.264;6.592;2022-08-23T13:45:53;0.40;;;0.40;;
51995;SDS011;38010;53.264;6.592;2022-08-23T13:48:21;0.50;;;0.50;;
51995;SDS011;38010;53.264;6.592;2022-08-23T13:50:49;0.40;;;0.40;;
51995;SDS011;38010;53.264;6.592;2022-08-23T13:53:16;0.40;;;0.40;;
51995;SDS011;38010;53.264;6.592;2022-08-23T13:55:43;0.30;;;0.30;;
51995;SDS011;38010;53.264;6.592;2022-08-23T13:58:26;0.30;;;0.30;;
51995;SDS011;38010;53.264;6.592;2022-08-23T14:00:54;0.50;;;0.40;;
51995;SDS011;38010;53.264;6.592;2022-08-23T14:03:21;0.38;;;0.38;;
51995;SDS011;38010;53.264;6.592;2022-08-23T14:05:48;0.30;;;0.30;;
51995;SDS011;38010;53.264;6.592;2022-08-23T14:08:13;0.30;;;0.30;;
51995;SDS011;38010;53.264;6.592;2022-08-23T14:10:39;0.30;;;0.30;;
51995;SDS011;38010;53.264;6.592;2022-08-23T14:13:05;0.40;;;0.40;;
51995;SDS011;38010;53.264;6.592;2022-08-23T14:15:32;0.40;;;0.40;;
51995;SDS011;38010;53.264;6.592;2022-08-23T14:17:58;0.50;;;0.50;;
51995;SDS011;38010;53.264;6.592;2022-08-23T14:20:24;0.30;;;0.30;;
51995;SDS011;38010;53.264;6.592;2022-08-23T14:22:50;0.40;;;0.40;;
51995;SDS011;38010;53.264;6.592;2022-08-23T14:25:16;0.38;;;0.38;;
51995;SDS011;38010;53.264;6.592;2022-08-23T14:27:43;0.40;;;0.40;;
51995;SDS011;38010;53.264;6.592;2022-08-23T14:30:14;0.40;;;0.40;;
51995;SDS011;38010;53.264;6.592;2022-08-23T14:32:47;0.40;;;0.40;;
51995;SDS011;38010;53.264;6.592;2022-08-23T14:35:13;0.22;;;0.22;;
51995;SDS011;38010;53.264;6.592;2022-08-23T14:37:39;0.40;;;0.40;;
51995;SDS011;38010;53.264;6.592;2022-08-23T14:40:05;0.40;;;0.40;;
51995;SDS011;38010;53.264;6.592;2022-08-23T14:42:33;0.30;;;0.30;;
51995;SDS011;38010;53.264;6.592;2022-08-23T14:44:58;0.57;;;0.40;;
51995;SDS011;38010;53.264;6.592;2022-08-23T14:47:24;0.30;;;0.30;;
51995;SDS011;38010;53.264;6.592;2022-08-23T14:49:50;0.40;;;0.40;;
51995;SDS011;38010;53.264;6.592;2022-08-23T14:52:16;0.45;;;0.40;;
51995;SDS011;38010;53.264;6.592;2022-08-23T14:54:42;0.35;;;0.35;;
51995;SDS011;38010;53.264;6.592;2022-08-23T14:57:08;0.30;;;0.30;;
51995;SDS011;38010;53.264;6.592;2022-08-23T14:59:34;0.30;;;0.30;;
51995;SDS011;38010;53.264;6.592;2022-08-23T15:02:00;0.30;;;0.30;;
51995;SDS011;38010;53.264;6.592;2022-08-23T15:04:27;0.30;;;0.30;;
51995;SDS011;38010;53.264;6.592;2022-08-23T15:06:53;0.38;;;0.38;;
51995;SDS011;38010;53.264;6.592;2022-08-23T15:09:21;0.40;;;0.30;;
51995;SDS011;38010;53.264;6.592;2022-08-23T15:11:47;0.95;;;0.40;;
51995;SDS011;38010;53.264;6.592;2022-08-23T15:14:14;0.40;;;0.40;;
51995;SDS011;38010;53.264;6.592;2022-08-23T15:16:40;0.30;;;0.30;;
51995;SDS011;38010;53.264;6.592;2022-08-23T15:19:06;0.30;;;0.30;;
51995;SDS011;38010;53.264;6.592;2022-08-23T15:21:31;0.55;;;0.43;;
51995;SDS011;38010;53.264;6.592;2022-08-23T15:23:57;0.47;;;0.45;;
51995;SDS011;38010;53.264;6.592;2022-08-23T15:26:24;0.55;;;0.50;;
51995;SDS011;38010;53.264;6.592;2022-08-23T15:28:52;0.57;;;0.50;;
51995;SDS011;38010;53.264;6.592;2022-08-23T15:31:19;0.40;;;0.40;;
51995;SDS011;38010;53.264;6.592;2022-08-23T15:33:45;0.77;;;0.50;;
51995;SDS011;38010;53.264;6.592;2022-08-23T15:36:11;0.30;;;0.30;;
51995;SDS011;38010;53.264;6.592;2022-08-23T15:38:38;0.40;;;0.40;;
51995;SDS011;38010;53.264;6.592;2022-08-23T15:41:04;0.40;;;0.40;;
51995;SDS011;38010;53.264;6.592;2022-08-23T15:43:30;1.35;;;0.50;;
51995;SDS011;38010;53.264;6.592;2022-08-23T15:45:57;0.73;;;0.47;;
51995;SDS011;38010;53.264;6.592;2022-08-23T15:48:24;0.50;;;0.40;;
51995;SDS011;38010;53.264;6.592;2022-08-23T15:50:54;0.68;;;0.50;;
51995;SDS011;38010;53.264;6.592;2022-08-23T15:53:22;0.68;;;0.50;;
51995;SDS011;38010;53.264;6.592;2022-08-23T15:55:48;0.95;;;0.60;;
51995;SDS011;38010;53.264;6.592;2022-08-23T15:58:20;0.85;;;0.75;;
51995;SDS011;38010;53.264;6.592;2022-08-23T16:00:48;6.70;;;2.30;;
51995;SDS011;38010;53.264;6.592;2022-08-23T16:03:14;6.53;;;3.25;;
51995;SDS011;38010;53.264;6.592;2022-08-23T16:05:43;7.72;;;3.10;;
51995;SDS011;38010;53.264;6.592;2022-08-23T16:08:21;8.02;;;3.30;;
51995;SDS011;38010;53.264;6.592;2022-08-23T16:10:51;7.32;;;3.15;;
51995;SDS011;38010;53.264;6.592;2022-08-23T16:13:17;8.43;;;3.20;;
51995;SDS011;38010;53.264;6.592;2022-08-23T16:15:43;5.18;;;2.33;;
51995;SDS011;38010;53.264;6.592;2022-08-23T16:18:08;4.43;;;2.67;;
51995;SDS011;38010;53.264;6.592;2022-08-23T16:20:35;6.15;;;2.60;;
51995;SDS011;38010;53.264;6.592;2022-08-23T16:23:00;6.70;;;2.65;;
51995;SDS011;38010;53.264;6.592;2022-08-23T16:25:26;4.32;;;2.30;;
51995;SDS011;38010;53.264;6.592;2022-08-23T16:27:52;3.17;;;1.77;;
51995;SDS011;38010;53.264;6.592;2022-08-23T16:30:17;3.90;;;2.25;;
51995;SDS011;38010;53.264;6.592;2022-08-23T16:32:45;4.05;;;2.00;;
51995;SDS011;38010;53.264;6.592;2022-08-23T16:35:11;3.78;;;1.95;;
51995;SDS011;38010;53.264;6.592;2022-08-23T16:37:37;3.83;;;2.30;;
51995;SDS011;38010;53.264;6.592;2022-08-23T16:40:04;4.47;;;2.10;;
51995;SDS011;38010;53.264;6.592;2022-08-23T16:42:31;3.55;;;2.15;;
51995;SDS011;38010;53.264;6.592;2022-08-23T16:44:56;3.83;;;2.25;;
51995;SDS011;38010;53.264;6.592;2022-08-23T16:47:22;3.35;;;2.35;;
51995;SDS011;38010;53.264;6.592;2022-08-23T16:49:48;5.13;;;2.65;;
51995;SDS011;38010;53.264;6.592;2022-08-23T16:52:14;4.63;;;2.60;;
51995;SDS011;38010;53.264;6.592;2022-08-23T16:54:41;4.15;;;2.35;;
51995;SDS011;38010;53.264;6.592;2022-08-23T16:57:07;4.60;;;2.50;;
51995;SDS011;38010;53.264;6.592;2022-08-23T16:59:32;5.07;;;3.00;;
51995;SDS011;38010;53.264;6.592;2022-08-23T17:02:00;4.80;;;2.92;;